Time;durP1;ratioP1;P1;durP2;ratioP2;P2;SDS_P1;SDS_P2;PMS_P1;PMS_P2;Temp;Humidity;BMP_temperature;BMP_pressure;BME280_temperature;BME280_humidity;BME280_pressure;Samples;Min_cycle;Max_cycle;Signal;HPM_P1;HPM_P2
2024/01/23 00:00:29;;;;;;;13.35;1.00;;;7.50;99.90;;;;;;5003548;28;20042;-82
2024/01/23 00:02:54;;;;;;;15.50;1.27;;;7.60;99.90;;;;;;5002302;28;20498;-81
2024/01/23 00:05:20;;;;;;;11.20;0.43;;;7.50;99.90;;;;;;5000932;28;20014;-82
2024/01/23 00:07:45;;;;;;;12.73;0.50;;;7.50;99.90;;;;;;5001775;28;20022;-82
2024/01/23 00:10:11;;;;;;;12.32;0.63;;;8.70;99.90;;;;;;5003558;28;20034;-82
2024/01/23 00:12:37;;;;;;;12.65;1.92;;;7.40;99.90;;;;;;5004344;28;20030;-82
2024/01/23 00:15:03;;;;;;;11.45;0.98;;;7.50;99.90;;;;;;5003297;28;20397;-82
2024/01/23 00:17:29;;;;;;;16.77;1.45;;;7.50;99.90;;;;;;5004211;28;20540;-82
2024/01/23 00:19:55;;;;;;;16.70;1.63;;;8.80;99.90;;;;;;5008701;28;20026;-81
2024/01/23 00:22:20;;;;;;;12.55;0.98;;;7.70;99.90;;;;;;5006251;28;20018;-82
2024/01/23 00:24:46;;;;;;;11.57;0.85;;;;;;;;;;5006141;28;20018;-82
2024/01/23 00:27:12;;;;;;;20.23;1.90;;;7.70;99.90;;;;;;5005042;28;20469;-81
2024/01/23 00:29:37;;;;;;;20.52;1.83;;;7.70;99.90;;;;;;5004334;28;20026;-81
2024/01/23 00:32:04;;;;;;;14.57;1.65;;;7.80;99.90;;;;;;5004633;28;20117;-82
2024/01/23 00:34:31;;;;;;;16.65;1.33;;;7.70;99.90;;;;;;5004390;28;20030;-81
2024/01/23 00:36:58;;;;;;;16.20;1.23;;;7.70;99.90;;;;;;5008420;28;20398;-80
2024/01/23 00:39:24;;;;;;;17.23;1.13;;;7.70;99.90;;;;;;5004841;28;20102;-81
2024/01/23 00:41:50;;;;;;;19.77;1.30;;;7.60;99.90;;;;;;5005091;28;20050;-82
2024/01/23 00:44:16;;;;;;;16.67;1.02;;;7.60;99.90;;;;;;5002856;28;20022;-81
2024/01/23 00:46:42;;;;;;;33.28;2.55;;;7.60;99.90;;;;;;5010265;28;20447;-82
2024/01/23 00:49:07;;;;;;;8.77;0.30;;;9.90;99.90;;;;;;5009269;28;20052;-81
2024/01/23 00:51:33;;;;;;;18.75;1.08;;;8.00;99.90;;;;;;5010781;28;20030;-82
2024/01/23 00:54:00;;;;;;;11.55;1.17;;;7.50;99.90;;;;;;5006815;28;20390;-81
2024/01/23 00:56:26;;;;;;;17.13;1.73;;;7.50;99.90;;;;;;5008071;28;20018;-82
2024/01/23 00:58:51;;;;;;;13.50;1.05;;;7.40;99.90;;;;;;5008238;28;20037;-81
2024/01/23 01:01:17;;;;;;;15.23;1.35;;;7.40;99.90;;;;;;5008029;28;20018;-82
2024/01/23 01:03:43;;;;;;;13.88;0.68;;;8.20;99.90;;;;;;5006359;28;20022;-81
2024/01/23 01:06:09;;;;;;;14.00;0.63;;;;;;;;;;5005625;28;20023;-82
2024/01/23 01:08:34;;;;;;;16.23;0.73;;;7.20;99.90;;;;;;5005341;28;20037;-82
2024/01/23 01:11:00;;;;;;;17.58;1.17;;;7.20;99.90;;;;;;5002474;28;20386;-81
2024/01/23 01:13:26;;;;;;;12.63;0.35;;;7.10;99.90;;;;;;5001253;28;20450;-81
2024/01/23 01:15:51;;;;;;;9.27;0.13;;;7.10;99.90;;;;;;5007561;28;20033;-81
2024/01/23 01:18:17;;;;;;;6.20;1.33;;;7.10;99.90;;;;;;5005542;28;20019;-81
2024/01/23 01:20:48;;;;;;;9.07;1.08;;;7.10;99.90;;;;;;5008354;28;20034;-80
2024/01/23 01:23:15;;;;;;;12.48;0.88;;;8.60;99.90;;;;;;5009323;28;20030;-81
2024/01/23 01:25:43;;;;;;;12.20;0.20;;;7.10;99.90;;;;;;5006847;28;20086;-81
2024/01/23 01:28:09;;;;;;;10.23;0.25;;;7.00;99.90;;;;;;5008305;28;20025;-80
2024/01/23 01:30:34;;;;;;;17.42;1.67;;;7.00;99.90;;;;;;5007779;28;20031;-81
2024/01/23 01:33:01;;;;;;;8.15;0.57;;;7.10;99.90;;;;;;5005121;28;20039;-81
2024/01/23 01:35:26;;;;;;;9.98;1.50;;;6.90;99.90;;;;;;5003949;28;20023;-81
2024/01/23 01:37:52;;;;;;;11.23;0.63;;;6.90;99.90;;;;;;5005639;28;20466;-81
2024/01/23 01:40:17;;;;;;;11.20;1.25;;;6.90;99.90;;;;;;5005620;28;20137;-80
2024/01/23 01:42:43;;;;;;;14.75;0.85;;;;;;;;;;5006899;28;20022;-80
2024/01/23 01:45:12;;;;;;;16.63;1.10;;;6.90;99.90;;;;;;5004404;28;20022;-82
2024/01/23 01:47:41;;;;;;;;;;;6.90;99.90;;;;;;5001628;28;20417;-81
2024/01/23 01:50:08;;;;;;;11.95;0.20;;;6.80;99.90;;;;;;5001202;28;19997;-82
2024/01/23 01:52:36;;;;;;;11.02;0.28;;;6.90;99.90;;;;;;5002485;28;20041;-80
2024/01/23 01:55:03;;;;;;;11.90;0.35;;;6.80;99.90;;;;;;4999722;28;20027;-82
2024/01/23 01:57:33;;;;;;;11.85;1.40;;;6.80;99.90;;;;;;4999732;28;20045;-82
2024/01/23 01:59:59;;;;;;;10.68;0.82;;;7.70;99.90;;;;;;5001978;28;20036;-81
2024/01/23 02:02:26;;;;;;;7.90;0.73;;;7.10;99.90;;;;;;5002174;28;20053;-81
2024/01/23 02:04:52;;;;;;;10.70;1.48;;;6.90;99.90;;;;;;5002635;28;20025;-81
2024/01/23 02:07:18;;;;;;;17.58;1.33;;;7.00;99.90;;;;;;5007081;28;20394;-82
2024/01/23 02:09:43;;;;;;;13.57;0.55;;;6.90;99.90;;;;;;5000470;28;20033;-81
2024/01/23 02:12:09;;;;;;;19.15;1.92;;;6.90;99.90;;;;;;5002733;28;20077;-81
2024/01/23 02:14:35;;;;;;;15.55;1.17;;;6.90;99.90;;;;;;5007533;28;20089;-81
2024/01/23 02:17:00;;;;;;;12.77;0.30;;;6.90;99.90;;;;;;5008182;28;20033;-81
2024/01/23 02:19:26;;;;;;;17.25;1.10;;;6.90;99.90;;;;;;5005916;28;20109;-81
2024/01/23 02:21:54;;;;;;;13.80;1.17;;;7.20;99.90;;;;;;5007388;28;20027;-81
2024/01/23 02:24:20;;;;;;;15.32;1.08;;;;;;;;;;5007116;28;20041;-81
2024/01/23 02:26:46;;;;;;;13.07;0.40;;;7.00;99.90;;;;;;5008411;28;20026;-81
2024/01/23 02:29:11;;;;;;;13.75;0.57;;;7.00;99.90;;;;;;5006590;28;20489;-81
2024/01/23 02:31:38;;;;;;;11.25;1.13;;;6.90;99.90;;;;;;5002900;28;20065;-81
2024/01/23 02:34:04;;;;;;;18.50;2.05;;;7.00;99.90;;;;;;5000340;28;20030;-80
2024/01/23 02:36:30;;;;;;;11.57;0.95;;;7.00;99.90;;;;;;5005082;28;20030;-82
2024/01/23 02:38:55;;;;;;;15.43;1.20;;;7.00;99.90;;;;;;5001364;28;20022;-80
2024/01/23 02:41:21;;;;;;;15.25;1.30;;;7.00;99.90;;;;;;5003094;28;20026;-81
2024/01/23 02:43:46;;;;;;;13.18;1.55;;;10.00;99.90;;;;;;5003394;28;20031;-81
2024/01/23 02:46:12;;;;;;;14.45;2.15;;;7.10;99.90;;;;;;5000169;28;20026;-81
2024/01/23 02:48:38;;;;;;;9.20;0.93;;;7.10;99.90;;;;;;5000671;28;20034;-80
2024/01/23 02:51:03;;;;;;;11.48;0.82;;;7.30;99.90;;;;;;5005737;28;20482;-80
2024/01/23 02:53:29;;;;;;;10.88;0.70;;;7.10;99.90;;;;;;5001490;28;20076;-80
2024/01/23 02:55:54;;;;;;;14.52;2.30;;;7.10;99.90;;;;;;5002761;28;20022;-80
2024/01/23 02:58:21;;;;;;;13.25;0.65;;;7.00;99.90;;;;;;5005885;28;20036;-81
2024/01/23 03:00:47;;;;;;;8.65;0.45;;;7.70;99.90;;;;;;5000127;28;20022;-80
2024/01/23 03:03:12;;;;;;;25.42;1.40;;;7.00;99.90;;;;;;4998360;28;20026;-80
2024/01/23 03:05:38;;;;;;;19.58;0.65;;;7.00;99.90;;;;;;4997926;28;20120;-80
2024/01/23 03:08:04;;;;;;;15.20;0.63;;;7.70;99.90;;;;;;4998555;28;20026;-80
2024/01/23 03:10:30;;;;;;;7.50;1.17;;;7.00;99.90;;;;;;4999135;28;20030;-80
2024/01/23 03:12:56;;;;;;;23.15;1.33;;;7.00;99.90;;;;;;4997852;28;20479;-80
2024/01/23 03:15:22;;;;;;;5.22;0.43;;;6.90;99.90;;;;;;4999425;28;20014;-80
2024/01/23 03:17:48;;;;;;;12.20;2.05;;;6.90;99.90;;;;;;4997511;28;20533;-80
2024/01/23 03:20:13;;;;;;;21.75;1.85;;;7.00;99.90;;;;;;4997482;28;20405;-80
2024/01/23 03:22:39;;;;;;;14.70;0.50;;;6.90;99.90;;;;;;4999009;28;20033;-80
2024/01/23 03:25:05;;;;;;;10.18;0.20;;;7.00;99.90;;;;;;5004643;28;20386;-80
2024/01/23 03:27:31;;;;;;;19.65;0.82;;;6.80;99.90;;;;;;5006045;28;20057;-81
2024/01/23 03:29:57;;;;;;;24.10;2.38;;;8.30;99.90;;;;;;5004209;28;20371;-80
2024/01/23 03:32:23;;;;;;;11.05;0.98;;;7.00;99.90;;;;;;5006002;28;20390;-80
2024/01/23 03:34:49;;;;;;;11.02;1.27;;;6.80;99.90;;;;;;5005324;28;20023;-80
2024/01/23 03:37:15;;;;;;;16.20;1.00;;;6.70;99.90;;;;;;5004390;28;20033;-80
2024/01/23 03:39:41;;;;;;;17.33;2.38;;;6.80;99.90;;;;;;5003733;28;20393;-80
2024/01/23 03:42:07;;;;;;;15.35;0.50;;;6.80;99.90;;;;;;5006572;28;20098;-80
2024/01/23 03:44:33;;;;;;;7.03;1.52;;;6.70;99.90;;;;;;5004923;28;20076;-80
2024/01/23 03:46:58;;;;;;;16.25;1.67;;;6.80;99.90;;;;;;5005591;28;20030;-80
2024/01/23 03:49:24;;;;;;;10.63;1.05;;;6.70;99.90;;;;;;5009410;28;20390;-79
2024/01/23 03:51:51;;;;;;;8.35;0.93;;;6.70;99.90;;;;;;5009389;28;20096;-80
2024/01/23 03:54:17;;;;;;;11.00;0.93;;;6.70;99.90;;;;;;5008784;28;20029;-80
2024/01/23 03:56:43;;;;;;;17.15;1.15;;;;;;;;;;5009134;28;20022;-80
2024/01/23 03:59:09;;;;;;;11.77;0.60;;;6.80;99.90;;;;;;5008573;28;20098;-80
2024/01/23 04:01:35;;;;;;;10.48;0.77;;;6.70;99.90;;;;;;5009341;28;20042;-80
2024/01/23 04:04:01;;;;;;;14.40;0.88;;;6.80;99.90;;;;;;5009453;28;20023;-80
2024/01/23 04:06:27;;;;;;;14.25;0.93;;;6.80;99.90;;;;;;5008487;28;20026;-81
2024/01/23 04:08:53;;;;;;;10.18;0.55;;;6.70;99.90;;;;;;5009287;28;20058;-80
2024/01/23 04:11:19;;;;;;;10.27;0.38;;;;;;;;;;5009484;28;20070;-81
2024/01/23 04:13:45;;;;;;;11.65;1.73;;;6.60;99.90;;;;;;5006947;28;20054;-81
2024/01/23 04:16:10;;;;;;;18.25;1.80;;;6.60;99.90;;;;;;5008329;28;20041;-81
2024/01/23 04:18:36;;;;;;;7.88;0.60;;;6.80;99.90;;;;;;5007548;28;20025;-81
2024/01/23 04:21:02;;;;;;;12.10;0.85;;;6.70;99.90;;;;;;5008745;28;20034;-82
2024/01/23 04:23:28;;;;;;;20.15;0.80;;;6.70;99.90;;;;;;5008833;28;20019;-79
2024/01/23 04:25:54;;;;;;;19.02;1.45;;;6.70;99.90;;;;;;5007764;28;20029;-79
2024/01/23 04:28:20;;;;;;;10.93;1.40;;;6.70;99.90;;;;;;5009169;28;20022;-81
2024/01/23 04:30:46;;;;;;;9.32;0.60;;;6.70;99.90;;;;;;5008692;28;20098;-81
2024/01/23 04:33:12;;;;;;;14.32;0.85;;;6.80;99.90;;;;;;5009256;28;20497;-80
2024/01/23 04:35:38;;;;;;;14.43;0.93;;;6.80;99.90;;;;;;5007353;28;20022;-80
2024/01/23 04:38:03;;;;;;;15.07;0.93;;;6.80;99.90;;;;;;5005727;28;20026;-81
2024/01/23 04:40:29;;;;;;;11.70;0.68;;;6.90;99.90;;;;;;5005192;28;20128;-81
2024/01/23 04:42:55;;;;;;;10.13;0.63;;;6.90;99.90;;;;;;5004366;28;20010;-81
2024/01/23 04:45:20;;;;;;;10.15;0.60;;;6.90;99.90;;;;;;5004201;28;20042;-81
2024/01/23 04:47:46;;;;;;;17.25;1.38;;;6.90;99.90;;;;;;5002559;28;20027;-81
2024/01/23 04:50:12;;;;;;;12.55;0.68;;;6.90;99.90;;;;;;5003809;28;20442;-80
2024/01/23 04:52:37;;;;;;;19.77;1.80;;;6.90;99.90;;;;;;5002210;28;20026;-81
2024/01/23 04:55:04;;;;;;;15.82;1.38;;;6.90;99.90;;;;;;5002724;28;20061;-80
2024/01/23 04:57:33;;;;;;;18.50;0.45;;;6.90;99.90;;;;;;5002036;28;20023;-80
2024/01/23 04:59:59;;;;;;;10.00;0.30;;;6.90;99.90;;;;;;5002510;28;20030;-80
2024/01/23 05:02:26;;;;;;;19.02;2.38;;;7.00;99.90;;;;;;5001175;28;20030;-80
2024/01/23 05:04:52;;;;;;;14.52;1.02;;;7.00;99.90;;;;;;5003335;28;20089;-81
2024/01/23 05:07:17;;;;;;;14.15;1.70;;;7.00;99.90;;;;;;5003198;28;20053;-80
2024/01/23 05:09:43;;;;;;;14.50;1.05;;;6.90;99.90;;;;;;5002266;28;20073;-80
2024/01/23 05:12:09;;;;;;;17.25;0.95;;;7.00;99.90;;;;;;5002637;28;20026;-80
2024/01/23 05:14:36;;;;;;;9.32;1.92;;;7.00;99.90;;;;;;5001596;28;20019;-80
2024/01/23 05:17:02;;;;;;;17.73;1.15;;;7.10;99.90;;;;;;5002313;28;20025;-80
2024/01/23 05:19:28;;;;;;;13.82;0.98;;;;;;;;;;5001379;28;20018;-80
2024/01/23 05:21:54;;;;;;;9.07;0.52;;;7.00;99.90;;;;;;5000756;28;20019;-79
2024/01/23 05:24:20;;;;;;;14.93;0.82;;;7.70;99.90;;;;;;4999785;28;20026;-79
2024/01/23 05:26:45;;;;;;;14.93;1.38;;;6.90;99.90;;;;;;5000936;28;20026;-81
2024/01/23 05:29:11;;;;;;;19.00;1.40;;;7.30;99.90;;;;;;5001520;28;20036;-81
2024/01/23 05:31:36;;;;;;;16.77;1.13;;;7.00;99.90;;;;;;5001935;28;20030;-81
2024/01/23 05:34:02;;;;;;;21.95;1.73;;;7.80;99.90;;;;;;5002142;28;20130;-81
2024/01/23 05:36:28;;;;;;;13.05;1.25;;;6.70;99.90;;;;;;5001680;28;20022;-81
2024/01/23 05:38:53;;;;;;;11.88;1.08;;;6.70;99.90;;;;;;5001486;28;20084;-81
2024/01/23 05:41:19;;;;;;;14.93;0.40;;;6.60;99.90;;;;;;5000818;28;20031;-81
2024/01/23 05:43:44;;;;;;;18.55;0.93;;;6.60;99.90;;;;;;5001117;28;20034;-81
2024/01/23 05:46:10;;;;;;;17.27;1.13;;;6.60;99.90;;;;;;5001392;28;20478;-79
2024/01/23 05:48:36;;;;;;;17.52;1.05;;;8.30;99.90;;;;;;5001875;28;20041;-81
2024/01/23 05:51:01;;;;;;;17.10;1.67;;;6.90;99.90;;;;;;5001394;28;20058;-81
2024/01/23 05:53:27;;;;;;;13.73;0.75;;;6.50;99.90;;;;;;5000750;28;20022;-82
2024/01/23 05:55:53;;;;;;;17.15;1.27;;;;;;;;;;5002082;28;20007;-82
2024/01/23 05:58:19;;;;;;;15.85;1.85;;;6.40;99.90;;;;;;5001687;28;20031;-81
2024/01/23 06:00:45;;;;;;;8.57;0.95;;;6.30;99.90;;;;;;4999814;28;20026;-81
2024/01/23 06:03:10;;;;;;;17.20;0.52;;;8.40;99.90;;;;;;5001653;28;20057;-82
2024/01/23 06:05:36;;;;;;;17.20;0.85;;;6.30;99.90;;;;;;5002448;28;20372;-81
2024/01/23 06:08:01;;;;;;;9.85;0.63;;;6.30;99.90;;;;;;5001106;28;20348;-80
2024/01/23 06:10:28;;;;;;;14.98;1.58;;;;;;;;;;4999227;28;20396;-78
2024/01/23 06:12:53;;;;;;;12.68;1.58;;;6.20;99.90;;;;;;4998087;28;20038;-79
2024/01/23 06:15:19;;;;;;;14.85;0.98;;;6.20;99.90;;;;;;4998056;28;20027;-79
2024/01/23 06:17:45;;;;;;;12.85;0.68;;;6.20;99.90;;;;;;4996782;28;20010;-79
2024/01/23 06:20:12;;;;;;;20.15;0.88;;;8.00;99.90;;;;;;4997549;28;20040;-79
2024/01/23 06:22:39;;;;;;;18.10;1.45;;;6.20;99.90;;;;;;4999300;28;20027;-79
2024/01/23 06:25:14;;;;;;;12.52;1.13;;;6.20;99.90;;;;;;4998169;28;20081;-79
2024/01/23 06:27:43;;;;;;;15.90;0.82;;;6.10;99.90;;;;;;4999849;28;20045;-79
2024/01/23 06:30:58;;;;;;;16.65;1.10;;;6.10;99.90;;;;;;5009004;28;20053;-82
2024/01/23 06:33:31;;;;;;;25.38;1.95;;;;;;;;;;5009419;28;20096;-81
2024/01/23 06:39:55;;;;;;;21.48;1.42;;;6.00;99.90;;;;;;5012478;28;20049;-80
2024/01/23 06:42:21;;;;;;;15.43;0.85;;;;;;;;;;5013296;28;20494;-83
2024/01/23 06:44:47;;;;;;;14.93;1.10;;;;;;;;;;5010447;28;20041;-83
2024/01/23 06:47:13;;;;;;;25.10;1.45;;;;;;;;;;5012293;28;20026;-82
2024/01/23 06:49:39;;;;;;;10.57;1.05;;;;;;;;;;5014949;28;20065;-82
2024/01/23 06:52:05;;;;;;;15.23;0.50;;;;;;;;;;5014948;28;20027;-82
2024/01/23 06:54:31;;;;;;;15.23;1.33;;;6.00;99.90;;;;;;5014100;28;20037;-80
2024/01/23 06:56:59;;;;;;;15.32;1.00;;;6.00;99.90;;;;;;5011295;28;20050;-81
2024/01/23 06:59:25;;;;;;;15.98;3.13;;;;;;;;;;5016877;28;20045;-82
2024/01/23 07:01:50;;;;;;;12.15;1.40;;;6.00;99.90;;;;;;5016691;28;20042;-82
2024/01/23 07:04:17;;;;;;;11.95;1.73;;;6.00;99.90;;;;;;5017742;28;20027;-81
2024/01/23 07:06:43;;;;;;;13.10;0.93;;;;;;;;;;5014546;28;20030;-81
2024/01/23 07:09:09;;;;;;;24.00;3.45;;;;;;;;;;5015624;28;20029;-80
2024/01/23 07:11:37;;;;;;;17.73;1.45;;;5.90;99.90;;;;;;5018266;28;20145;-82
2024/01/23 07:14:03;;;;;;;16.95;1.60;;;5.80;99.90;;;;;;5017571;28;20027;-83
2024/01/23 07:16:29;;;;;;;15.30;1.33;;;;;;;;;;5017731;28;20053;-81
2024/01/23 07:18:54;;;;;;;18.42;0.82;;;5.80;99.90;;;;;;5018554;28;20020;-82
2024/01/23 07:21:21;;;;;;;17.42;1.23;;;;;;;;;;5018936;28;20021;-80
2024/01/23 07:23:47;;;;;;;17.38;1.52;;;5.90;99.90;;;;;;5018235;28;20045;-83
2024/01/23 07:26:12;;;;;;;15.85;1.27;;;;;;;;;;5015950;28;20022;-83
2024/01/23 07:28:39;;;;;;;12.07;1.33;;;5.80;99.90;;;;;;5016504;28;20045;-83
2024/01/23 07:31:05;;;;;;;14.90;1.02;;;;;;;;;;5013618;28;20562;-80
2024/01/23 07:33:31;;;;;;;14.48;0.95;;;5.80;99.90;;;;;;5016658;28;20103;-81
2024/01/23 07:35:56;;;;;;;14.55;0.82;;;5.80;99.90;;;;;;5011278;28;20470;-82
2024/01/23 07:38:22;;;;;;;15.00;1.08;;;5.70;99.90;;;;;;5005224;28;20477;-84
2024/01/23 07:40:48;;;;;;;23.75;3.33;;;5.70;99.90;;;;;;5007516;28;20030;-83
2024/01/23 07:43:14;;;;;;;13.65;0.77;;;;;;;;;;5001567;28;19998;-82
2024/01/23 07:45:40;;;;;;;16.60;1.48;;;5.60;99.90;;;;;;5000297;28;20031;-82
2024/01/23 07:48:06;;;;;;;29.02;2.47;;;5.60;99.90;;;;;;5005583;28;20030;-83
2024/01/23 07:50:32;;;;;;;23.13;1.27;;;;;;;;;;5007597;28;20037;-82
2024/01/23 07:52:57;;;;;;;11.48;0.50;;;5.50;99.90;;;;;;5006950;28;20041;-82
2024/01/23 07:55:24;;;;;;;10.60;1.05;;;5.50;99.90;;;;;;5003037;28;20026;-83
2024/01/23 07:57:50;;;;;;;22.05;2.20;;;;;;;;;;5002129;28;20010;-85
2024/01/23 08:00:18;;;;;;;18.30;1.77;;;5.40;99.90;;;;;;5006699;28;20487;-82
2024/01/23 08:02:44;;;;;;;25.73;1.90;;;5.50;99.90;;;;;;5008324;28;20018;-82
2024/01/23 08:05:10;;;;;;;17.05;1.38;;;7.20;99.90;;;;;;5005643;28;20698;-82
2024/01/23 08:07:37;;;;;;;12.45;0.85;;;5.40;99.90;;;;;;5005705;28;20038;-82
2024/01/23 08:10:03;;;;;;;26.75;1.92;;;5.50;99.90;;;;;;5005157;28;20065;-81
2024/01/23 08:12:29;;;;;;;15.38;1.77;;;;;;;;;;5004869;28;20041;-82
2024/01/23 08:14:55;;;;;;;40.38;2.13;;;;;;;;;;5005212;28;20034;-82
2024/01/23 08:17:21;;;;;;;18.00;1.30;;;5.50;99.90;;;;;;5005490;28;20027;-80
2024/01/23 08:19:46;;;;;;;10.73;1.10;;;5.50;99.90;;;;;;5009785;28;20030;-79
2024/01/23 08:22:12;;;;;;;14.43;1.98;;;5.50;99.90;;;;;;5006785;28;20023;-80
2024/01/23 08:24:38;;;;;;;16.17;1.38;;;5.50;99.90;;;;;;5008418;28;20390;-80
2024/01/23 08:27:04;;;;;;;17.90;1.75;;;5.50;99.90;;;;;;5004776;28;20410;-82
2024/01/23 08:29:30;;;;;;;13.52;0.82;;;5.50;99.90;;;;;;5002357;28;20030;-78
2024/01/23 08:31:55;;;;;;;27.17;2.30;;;5.60;99.90;;;;;;4999538;28;20030;-78
2024/01/23 08:34:22;;;;;;;14.05;1.52;;;7.00;99.90;;;;;;4999982;28;20026;-78
2024/01/23 08:36:48;;;;;;;19.92;1.38;;;5.60;99.90;;;;;;4999804;28;20562;-78
2024/01/23 08:39:14;;;;;;;18.88;1.65;;;5.70;99.90;;;;;;4999012;28;20035;-78
2024/01/23 08:41:40;;;;;;;16.92;0.65;;;8.20;99.90;;;;;;4999261;28;20368;-78
2024/01/23 08:44:05;;;;;;;14.65;1.05;;;5.60;99.90;;;;;;5000648;28;20029;-78
2024/01/23 08:46:31;;;;;;;12.90;0.98;;;5.70;99.90;;;;;;5000268;28;20022;-78
2024/01/23 08:48:57;;;;;;;14.48;1.27;;;5.80;99.90;;;;;;4999666;28;20014;-78
2024/01/23 08:51:24;;;;;;;17.75;1.85;;;5.90;99.90;;;;;;5001498;28;20453;-78
2024/01/23 08:53:51;;;;;;;14.27;1.00;;;5.80;99.90;;;;;;5001268;28;20029;-79
2024/01/23 08:56:24;;;;;;;24.02;1.38;;;5.80;99.90;;;;;;4999801;28;20022;-79
2024/01/23 08:58:50;;;;;;;17.80;1.15;;;5.90;99.90;;;;;;4999299;28;20034;-78
2024/01/23 09:01:17;;;;;;;26.63;2.60;;;6.00;99.90;;;;;;5001153;28;20027;-78
2024/01/23 09:03:43;;;;;;;10.77;0.60;;;6.10;99.90;;;;;;5001495;28;20033;-78
2024/01/23 09:06:10;;;;;;;23.02;1.30;;;6.20;99.90;;;;;;5000043;28;20027;-79
2024/01/23 09:08:36;;;;;;;18.00;1.45;;;6.10;99.90;;;;;;4998942;28;20032;-78
2024/01/23 09:11:02;;;;;;;20.83;0.88;;;6.50;99.90;;;;;;4999855;28;20105;-78
2024/01/23 09:13:31;;;;;;;12.98;1.17;;;6.00;99.90;;;;;;5000496;28;20488;-78
2024/01/23 09:15:58;;;;;;;16.23;1.95;;;6.10;99.90;;;;;;4998860;28;20493;-78
2024/01/23 09:18:23;;;;;;;13.50;1.33;;;6.10;99.90;;;;;;4999358;28;20023;-78
2024/01/23 09:20:49;;;;;;;14.50;0.88;;;6.10;99.90;;;;;;4998036;28;20086;-78
2024/01/23 09:23:15;;;;;;;16.08;1.17;;;6.00;99.90;;;;;;4997879;28;20019;-79
2024/01/23 09:25:40;;;;;;;19.33;2.75;;;6.30;99.90;;;;;;5003437;28;20031;-79
2024/01/23 09:28:06;;;;;;;24.45;1.63;;;6.30;99.90;;;;;;5000435;28;20031;-78
2024/01/23 09:30:32;;;;;;;28.08;2.30;;;6.40;99.90;;;;;;5000882;28;20029;-79
2024/01/23 09:32:59;;;;;;;18.45;0.88;;;6.50;99.90;;;;;;5000314;28;20038;-78
2024/01/23 09:35:24;;;;;;;17.58;1.05;;;6.60;99.90;;;;;;4998760;28;20116;-78
2024/01/23 09:37:50;;;;;;;17.70;2.97;;;7.50;99.90;;;;;;4998584;28;20056;-78
2024/01/23 09:40:16;;;;;;;25.52;2.40;;;6.60;99.90;;;;;;4998292;28;20442;-78
2024/01/23 09:42:42;;;;;;;15.95;1.48;;;6.70;99.90;;;;;;4998531;28;20018;-78
2024/01/23 09:45:15;;;;;;;18.33;1.30;;;6.80;99.90;;;;;;4999448;28;20015;-78
2024/01/23 09:47:42;;;;;;;19.45;1.48;;;8.60;99.90;;;;;;4997984;28;20030;-78
2024/01/23 09:50:11;;;;;;;18.60;1.80;;;6.80;99.90;;;;;;4997774;28;20022;-78
2024/01/23 09:52:38;;;;;;;12.85;1.15;;;6.80;99.90;;;;;;5002482;28;20023;-78
2024/01/23 09:55:04;;;;;;;17.25;2.30;;;6.80;99.90;;;;;;4998909;28;20019;-78
2024/01/23 09:57:31;;;;;;;20.73;2.28;;;6.90;99.90;;;;;;4998825;28;20026;-78
2024/01/23 09:59:57;;;;;;;26.58;1.25;;;8.00;99.90;;;;;;4998842;28;20025;-78
2024/01/23 10:02:24;;;;;;;21.75;2.25;;;7.00;99.90;;;;;;4998735;28;20394;-78
2024/01/23 10:04:52;;;;;;;22.88;2.90;;;6.90;99.90;;;;;;4998383;28;20165;-78
2024/01/23 10:07:18;;;;;;;18.60;1.27;;;;;;;;;;4998377;28;20006;-78
2024/01/23 10:10:09;;;;;;;14.10;0.47;;;6.90;99.90;;;;;;4998770;28;20033;-78
2024/01/23 10:12:34;;;;;;;25.70;2.67;;;6.90;99.90;;;;;;4998511;28;20038;-78
2024/01/23 10:15:00;;;;;;;19.27;1.63;;;6.90;99.90;;;;;;4999422;28;20478;-78
2024/01/23 10:17:26;;;;;;;11.98;1.58;;;6.90;99.90;;;;;;4998969;28;20026;-79
2024/01/23 10:19:52;;;;;;;24.52;1.65;;;7.00;99.90;;;;;;4998761;28;20061;-77
2024/01/23 10:22:18;;;;;;;13.38;1.02;;;7.20;99.90;;;;;;5001075;28;20486;-79
2024/01/23 10:24:44;;;;;;;15.25;1.60;;;7.10;99.90;;;;;;5002897;28;20018;-79
2024/01/23 10:27:09;;;;;;;24.83;2.00;;;7.20;99.90;;;;;;5000349;28;20382;-78
2024/01/23 10:29:35;;;;;;;23.92;2.08;;;8.70;99.90;;;;;;5002194;28;20101;-78
2024/01/23 10:32:04;;;;;;;21.92;1.52;;;7.50;99.90;;;;;;5003694;28;20034;-79
2024/01/23 10:34:31;;;;;;;24.58;1.95;;;7.50;99.90;;;;;;5003313;28;20022;-80
2024/01/23 10:36:58;;;;;;;23.63;2.35;;;7.60;99.90;;;;;;4998738;28;20064;-79
2024/01/23 10:39:25;;;;;;;12.63;1.00;;;7.60;99.90;;;;;;5001692;28;20470;-79
2024/01/23 10:41:55;;;;;;;18.95;1.88;;;7.60;99.90;;;;;;5001060;28;20385;-78
2024/01/23 10:44:22;;;;;;;11.32;1.10;;;7.60;99.90;;;;;;5000203;28;20113;-78
2024/01/23 10:46:49;;;;;;;18.45;0.80;;;7.60;99.90;;;;;;4998212;28;20030;-78
2024/01/23 10:49:15;;;;;;;15.65;1.55;;;7.60;99.90;;;;;;4998330;28;20022;-80
2024/01/23 10:51:45;;;;;;;14.75;0.75;;;7.70;99.90;;;;;;5000375;28;20486;-77
2024/01/23 10:54:32;;;;;;;15.98;1.13;;;7.70;99.90;;;;;;5002335;28;20037;-79
2024/01/23 10:56:59;;;;;;;8.43;0.43;;;7.70;99.90;;;;;;5000330;28;20030;-79
2024/01/23 10:59:30;;;;;;;25.65;1.90;;;7.70;99.90;;;;;;4999258;28;20014;-79
2024/01/23 11:02:05;;;;;;;14.10;1.27;;;7.80;99.90;;;;;;5003368;28;20033;-79
2024/01/23 11:04:31;;;;;;;19.90;1.77;;;7.90;99.90;;;;;;5005324;28;20021;-79
2024/01/23 11:07:06;;;;;;;15.20;0.82;;;7.80;99.90;;;;;;4998309;28;20474;-79
2024/01/23 11:09:47;;;;;;;18.83;3.08;;;7.80;99.90;;;;;;5008491;28;20027;-79
2024/01/23 11:12:37;;;;;;;15.32;2.65;;;7.90;99.90;;;;;;5009456;28;20027;-79
2024/01/23 11:15:13;;;;;;;15.43;1.27;;;8.00;99.90;;;;;;4999077;28;20133;-79
2024/01/23 11:17:39;;;;;;;17.42;1.05;;;7.90;99.90;;;;;;5002423;28;20033;-80
2024/01/23 11:20:13;;;;;;;15.85;2.15;;;7.80;99.90;;;;;;5006728;28;20026;-79
2024/01/23 11:22:38;;;;;;;18.35;1.10;;;7.80;99.90;;;;;;5001164;28;20019;-79
2024/01/23 11:25:05;;;;;;;15.38;1.58;;;7.60;99.90;;;;;;5004187;28;20033;-79
2024/01/23 11:27:33;;;;;;;15.50;1.27;;;7.60;99.90;;;;;;5003595;28;20045;-79
2024/01/23 11:29:59;;;;;;;18.13;2.03;;;7.60;99.90;;;;;;5001117;28;20042;-78
2024/01/23 11:32:29;;;;;;;17.20;1.42;;;8.60;99.90;;;;;;5003507;28;20030;-80
2024/01/23 11:35:07;;;;;;;23.50;1.67;;;7.70;99.90;;;;;;5003926;28;20026;-79
2024/01/23 11:37:33;;;;;;;20.25;1.02;;;7.80;99.90;;;;;;5004093;28;20033;-79
2024/01/23 11:39:59;;;;;;;21.27;1.90;;;7.90;99.90;;;;;;5006372;28;20105;-79
2024/01/23 11:42:40;;;;;;;19.58;0.95;;;8.00;99.90;;;;;;5008446;28;20042;-79
2024/01/23 11:45:22;;;;;;;20.00;0.93;;;8.00;99.90;;;;;;5007235;28;20038;-80
2024/01/23 11:47:56;;;;;;;13.20;1.30;;;8.80;99.90;;;;;;5010321;28;20156;-80
2024/01/23 11:50:21;;;;;;;17.35;1.13;;;8.20;99.90;;;;;;5007623;28;20033;-81
2024/01/23 11:52:52;;;;;;;23.10;1.30;;;8.30;99.90;;;;;;5009714;28;20022;-80
2024/01/23 11:55:19;;;;;;;18.38;1.25;;;8.50;99.90;;;;;;5011823;28;20050;-80
2024/01/23 11:57:48;;;;;;;14.65;0.45;;;8.50;99.90;;;;;;5009575;28;20019;-80
2024/01/23 12:00:14;;;;;;;12.27;1.15;;;8.50;99.90;;;;;;5010635;28;20053;-80
2024/01/23 12:02:42;;;;;;;18.48;1.55;;;8.70;99.90;;;;;;5011513;28;20022;-80
2024/01/23 12:05:07;;;;;;;11.18;0.85;;;8.70;99.90;;;;;;5008682;28;20086;-80
2024/01/23 12:07:37;;;;;;;10.57;1.17;;;8.70;99.90;;;;;;5013058;28;20030;-80
2024/01/23 12:10:04;;;;;;;18.13;0.63;;;8.80;99.90;;;;;;5010923;28;20030;-80
2024/01/23 12:12:30;;;;;;;18.27;1.00;;;8.90;99.90;;;;;;5002132;28;20030;-79
2024/01/23 12:14:56;;;;;;;13.70;1.45;;;8.90;99.90;;;;;;5010423;28;20030;-80
2024/01/23 12:17:22;;;;;;;11.63;0.65;;;9.00;99.90;;;;;;5007511;28;20022;-78
2024/01/23 12:19:48;;;;;;;21.33;1.30;;;9.60;99.90;;;;;;4998395;28;20035;-78
2024/01/23 12:22:15;;;;;;;15.88;1.33;;;9.20;99.90;;;;;;4999054;28;20470;-80
2024/01/23 12:24:42;;;;;;;15.48;1.40;;;9.30;99.90;;;;;;5008117;28;20105;-78
2024/01/23 12:27:08;;;;;;;16.60;0.50;;;9.30;99.90;;;;;;5008285;28;20018;-78
2024/01/23 12:29:35;;;;;;;11.50;1.05;;;9.40;99.90;;;;;;5010840;28;20107;-79
2024/01/23 12:32:01;;;;;;;7.60;1.02;;;9.60;99.90;;;;;;5008124;28;20045;-79
2024/01/23 12:34:29;;;;;;;20.30;2.45;;;9.40;99.90;;;;;;5007703;28;20023;-78
2024/01/23 12:37:01;;;;;;;11.38;0.30;;;9.20;99.90;;;;;;5009583;28;20019;-79
2024/01/23 12:39:30;;;;;;;22.77;1.88;;;9.30;99.90;;;;;;5008407;28;20023;-78
2024/01/23 12:41:57;;;;;;;13.27;1.50;;;9.20;99.90;;;;;;5009287;28;20027;-79
2024/01/23 12:44:24;;;;;;;12.73;0.80;;;9.20;99.90;;;;;;5007832;28;20110;-80
2024/01/23 12:46:50;;;;;;;15.07;0.93;;;9.10;99.90;;;;;;5004898;28;20398;-79
2024/01/23 12:49:18;;;;;;;17.75;1.83;;;10.90;99.90;;;;;;5009846;28;20023;-79
2024/01/23 12:51:47;;;;;;;8.77;0.82;;;9.00;99.90;;;;;;5011008;28;20022;-79
2024/01/23 12:54:13;;;;;;;18.48;1.63;;;;;;;;;;5010694;28;20050;-80
2024/01/23 12:56:39;;;;;;;12.25;1.40;;;8.90;99.90;;;;;;5009710;28;20397;-80